createdAt,value
2023-11-04T00:01:01.387Z,4.40
2023-11-04T00:03:35.515Z,4.30
2023-11-04T00:06:02.568Z,3.80
2023-11-04T00:08:29.683Z,4.10
2023-11-04T00:10:57.253Z,3.60
2023-11-04T00:13:24.186Z,3.30
2023-11-04T00:15:51.462Z,3.30
2023-11-04T00:18:19.112Z,3.50
2023-11-04T00:20:51.553Z,3.90
2023-11-04T00:23:19.484Z,3.60
2023-11-04T00:25:46.437Z,3.90
2023-11-04T00:28:13.642Z,4.10
2023-11-04T00:30:40.981Z,3.60
2023-11-04T00:33:08.383Z,4.10
2023-11-04T00:35:35.747Z,4.20
2023-11-04T00:38:02.798Z,3.60
2023-11-04T00:40:30.192Z,3.50
2023-11-04T00:42:57.110Z,3.40
2023-11-04T00:45:24.318Z,3.90
2023-11-04T00:47:51.524Z,3.90
2023-11-04T00:50:21.372Z,3.70
2023-11-04T00:52:49.311Z,3.60
2023-11-04T00:55:16.374Z,3.80
2023-11-04T00:57:43.258Z,3.70
2023-11-04T01:00:11.485Z,4.10
2023-11-04T01:02:38.700Z,4.10
2023-11-04T01:05:06.161Z,3.90
2023-11-04T01:07:33.722Z,4.10
2023-11-04T01:10:00.709Z,4.40
2023-11-04T01:12:27.700Z,4.00
2023-11-04T01:14:54.770Z,4.00
2023-11-04T01:17:21.703Z,3.90
2023-11-04T01:19:48.713Z,4.10
2023-11-04T01:22:16.923Z,3.90
2023-11-04T01:24:44.249Z,3.80
2023-11-04T01:27:11.213Z,4.00
2023-11-04T01:29:38.615Z,4.30
2023-11-04T01:32:07.156Z,4.30
2023-11-04T01:34:34.370Z,4.40
2023-11-04T01:37:01.508Z,4.10
2023-11-04T01:39:28.518Z,4.00
2023-11-04T01:41:56.159Z,4.40
2023-11-04T01:44:23.166Z,4.00
2023-11-04T01:46:50.811Z,5.40
2023-11-04T01:49:17.785Z,5.40
2023-11-04T01:51:45.070Z,5.90
2023-11-04T01:54:12.296Z,5.20
2023-11-04T01:56:40.617Z,6.00
2023-11-04T01:59:10.106Z,5.60
2023-11-04T02:01:38.133Z,5.60
2023-11-04T02:04:05.442Z,5.70
2023-11-04T02:06:32.737Z,6.10
2023-11-04T02:08:59.778Z,6.30
2023-11-04T02:11:26.795Z,6.10
2023-11-04T02:13:53.734Z,6.20
2023-11-04T02:16:20.965Z,5.40
2023-11-04T02:18:48.030Z,5.80
2023-11-04T02:21:15.601Z,5.40
2023-11-04T02:23:42.439Z,5.50
2023-11-04T02:26:09.718Z,5.40
2023-11-04T02:28:36.853Z,5.50
2023-11-04T02:31:04.141Z,5.40
2023-11-04T02:33:31.216Z,5.10
2023-11-04T02:35:58.650Z,5.90
2023-11-04T02:38:25.554Z,5.30
2023-11-04T02:40:52.497Z,5.40
2023-11-04T02:43:19.519Z,5.60
2023-11-04T02:45:46.495Z,5.30
2023-11-04T02:48:13.644Z,5.30
2023-11-04T02:50:40.675Z,5.50
2023-11-04T02:53:07.738Z,5.70
2023-11-04T02:55:34.670Z,5.10
2023-11-04T02:58:01.869Z,5.30
2023-11-04T03:00:29.234Z,5.70
2023-11-04T03:02:56.717Z,5.30
2023-11-04T03:05:28.283Z,5.30
2023-11-04T03:08:02.177Z,5.90
2023-11-04T03:10:29.441Z,5.30
2023-11-04T03:12:56.467Z,5.20
2023-11-04T03:15:23.398Z,5.40
2023-11-04T03:17:50.509Z,5.20
2023-11-04T03:20:17.537Z,4.80
2023-11-04T03:22:44.571Z,5.50
2023-11-04T03:25:13.569Z,5.00
2023-11-04T03:27:40.743Z,5.30
2023-11-04T03:30:10.461Z,5.50
2023-11-04T03:32:38.789Z,5.40
2023-11-04T03:35:06.304Z,5.10
2023-11-04T03:37:35.600Z,5.30
2023-11-04T03:40:02.776Z,5.80
2023-11-04T03:42:29.933Z,5.70
2023-11-04T03:44:56.956Z,5.40
2023-11-04T03:47:24.052Z,5.60
2023-11-04T03:49:51.205Z,5.40
2023-11-04T03:52:18.115Z,5.50
2023-11-04T03:54:45.044Z,6.10
2023-11-04T03:57:11.926Z,5.50
2023-11-04T03:59:39.401Z,5.20
2023-11-04T04:02:08.699Z,5.10
2023-11-04T04:04:35.885Z,5.70
2023-11-04T04:07:02.859Z,5.50
2023-11-04T04:09:29.992Z,5.40
2023-11-04T04:11:58.869Z,5.30
2023-11-04T04:14:26.028Z,5.30
2023-11-04T04:16:53.112Z,5.40
2023-11-04T04:19:20.737Z,5.70
2023-11-04T04:21:48.034Z,5.70
2023-11-04T04:24:14.982Z,5.30
2023-11-04T04:26:41.847Z,5.60
2023-11-04T04:29:09.245Z,5.90
2023-11-04T04:31:36.338Z,5.90
2023-11-04T04:34:03.385Z,6.00
2023-11-04T04:36:31.552Z,6.20
2023-11-04T04:38:58.609Z,6.60
2023-11-04T04:41:27.723Z,6.70
2023-11-04T04:43:54.949Z,6.10
2023-11-04T04:46:21.969Z,6.40
2023-11-04T04:48:49.162Z,6.40
2023-11-04T04:51:18.000Z,6.60
2023-11-04T04:53:45.077Z,6.20
2023-11-04T04:56:12.199Z,6.20
2023-11-04T04:58:39.221Z,6.30
2023-11-04T05:01:06.458Z,5.40
2023-11-04T05:03:33.714Z,6.80
2023-11-04T05:06:01.195Z,5.90
2023-11-04T05:08:28.241Z,6.10
2023-11-04T05:10:55.112Z,6.20
2023-11-04T05:13:22.068Z,6.60
2023-11-04T05:15:49.157Z,5.80
2023-11-04T05:18:16.915Z,6.30
2023-11-04T05:20:44.157Z,6.40
2023-11-04T05:23:11.161Z,6.60
2023-11-04T05:25:38.545Z,6.30
2023-11-04T05:28:06.090Z,6.20
2023-11-04T05:30:36.196Z,6.40
2023-11-04T05:33:04.385Z,6.40
2023-11-04T05:35:31.439Z,6.50
2023-11-04T05:37:58.761Z,6.10
2023-11-04T05:40:25.921Z,6.60
2023-11-04T05:42:52.906Z,6.30
2023-11-04T05:45:20.260Z,6.70
2023-11-04T05:47:48.001Z,6.50
2023-11-04T05:50:15.091Z,6.80
2023-11-04T05:52:44.506Z,6.60
2023-11-04T05:55:12.734Z,7.10
2023-11-04T05:57:39.930Z,7.20
2023-11-04T06:00:12.480Z,6.80
2023-11-04T06:02:40.527Z,7.30
2023-11-04T06:05:11.337Z,6.70
2023-11-04T06:07:38.452Z,7.20
2023-11-04T06:10:09.846Z,7.60
2023-11-04T06:12:37.239Z,7.10
2023-11-04T06:15:04.936Z,7.50
2023-11-04T06:17:32.394Z,7.30
2023-11-04T06:19:59.603Z,6.70
2023-11-04T06:22:26.754Z,7.80
2023-11-04T06:26:01.933Z,8.00
2023-11-04T06:28:30.054Z,8.80
2023-11-04T06:30:57.604Z,9.00
2023-11-04T06:33:24.730Z,8.50
2023-11-04T06:35:52.013Z,8.10
2023-11-04T06:38:19.289Z,9.00
2023-11-04T06:40:46.787Z,7.90
2023-11-04T06:43:14.060Z,10.30
2023-11-04T06:45:41.392Z,9.60
2023-11-04T06:48:08.835Z,12.90
2023-11-04T06:50:37.744Z,12.00
2023-11-04T06:53:04.852Z,11.30
2023-11-04T06:55:34.345Z,10.10
2023-11-04T06:58:01.609Z,10.00
2023-11-04T07:00:29.073Z,10.50
2023-11-04T07:02:56.541Z,9.80
2023-11-04T07:05:25.027Z,10.40
2023-11-04T07:07:52.285Z,10.40
2023-11-04T07:10:19.678Z,10.80
2023-11-04T07:12:46.802Z,10.70
2023-11-04T07:15:13.754Z,10.50
2023-11-04T07:17:40.711Z,9.60
2023-11-04T07:20:11.222Z,10.00
2023-11-04T07:22:38.285Z,9.50
2023-11-04T07:25:05.524Z,10.80
2023-11-04T07:27:32.695Z,10.80
2023-11-04T07:29:59.558Z,10.30
2023-11-04T07:32:26.569Z,11.90
2023-11-04T07:34:53.535Z,10.50
2023-11-04T07:37:20.654Z,11.30
2023-11-04T07:39:48.096Z,10.50
2023-11-04T07:42:15.335Z,9.60
2023-11-04T07:44:42.332Z,10.90
2023-11-04T07:47:09.271Z,10.70
2023-11-04T07:49:36.595Z,10.40
2023-11-04T07:52:06.862Z,9.80
2023-11-04T07:54:33.876Z,10.60
2023-11-04T07:57:00.801Z,10.40
2023-11-04T07:59:27.785Z,10.40
2023-11-04T08:01:54.701Z,10.60
2023-11-04T08:04:38.671Z,9.90
2023-11-04T08:07:05.699Z,10.30
2023-11-04T08:09:32.783Z,11.50
2023-11-04T08:11:59.785Z,10.30
2023-11-04T08:14:26.661Z,10.40
2023-11-04T08:16:54.633Z,10.00
2023-11-04T08:19:21.615Z,9.90
2023-11-04T08:21:50.941Z,10.80
2023-11-04T08:24:17.908Z,11.30
2023-11-04T08:26:44.917Z,10.60
2023-11-04T08:29:11.812Z,11.50
2023-11-04T08:31:38.925Z,11.50
2023-11-04T08:34:06.136Z,10.90
2023-11-04T08:36:33.375Z,11.20
2023-11-04T08:39:00.431Z,11.60
2023-11-04T08:41:27.359Z,11.20
2023-11-04T08:43:56.266Z,11.40
2023-11-04T08:46:23.403Z,11.60
2023-11-04T08:48:51.450Z,10.90
2023-11-04T08:51:18.789Z,11.60
2023-11-04T08:53:45.735Z,10.90
2023-11-04T08:56:12.788Z,11.60
2023-11-04T08:58:49.959Z,11.50
2023-11-04T09:01:19.633Z,11.90
2023-11-04T09:03:54.939Z,10.60
2023-11-04T09:06:28.151Z,11.30
2023-11-04T09:08:55.802Z,11.30
2023-11-04T09:11:22.708Z,11.60
2023-11-04T09:13:49.675Z,11.70
2023-11-04T09:16:16.928Z,10.90
2023-11-04T09:18:44.876Z,11.60
2023-11-04T09:21:12.049Z,11.20
2023-11-04T09:23:40.321Z,11.80
2023-11-04T09:26:08.079Z,12.00
2023-11-04T09:28:35.188Z,12.20
2023-11-04T09:31:02.581Z,11.70
2023-11-04T09:33:32.335Z,12.10
2023-11-04T09:36:00.702Z,11.90
2023-11-04T09:38:27.737Z,11.80
2023-11-04T09:40:54.721Z,11.40
2023-11-04T09:43:22.026Z,11.20
2023-11-04T09:45:49.096Z,11.00
2023-11-04T09:48:16.139Z,11.70
2023-11-04T09:50:43.091Z,10.70
2023-11-04T09:53:22.849Z,11.10
2023-11-04T09:55:50.929Z,11.90
2023-11-04T09:58:17.946Z,11.50
2023-11-04T10:00:45.036Z,11.60
2023-11-04T10:03:12.029Z,11.40
2023-11-04T10:05:39.353Z,11.80
2023-11-04T10:08:06.361Z,10.90
2023-11-04T10:10:35.668Z,11.00
2023-11-04T10:13:05.388Z,11.40
2023-11-04T10:15:32.534Z,11.10
2023-11-04T10:17:59.474Z,11.90
2023-11-04T10:20:26.602Z,11.80
2023-11-04T10:22:54.684Z,12.30
2023-11-04T10:25:21.995Z,12.80
2023-11-04T10:27:49.154Z,12.80
2023-11-04T10:30:16.244Z,12.10
2023-11-04T10:32:46.639Z,11.80
2023-11-04T10:35:13.844Z,11.80
2023-11-04T10:37:41.008Z,12.40
2023-11-04T10:40:08.744Z,13.10
2023-11-04T10:42:38.169Z,12.50
2023-11-04T10:45:17.799Z,13.00
2023-11-04T10:48:06.082Z,12.10
2023-11-04T10:50:34.193Z,11.80
2023-11-04T10:53:39.261Z,11.50
2023-11-04T10:56:10.331Z,12.40
2023-11-04T10:59:12.365Z,12.80
2023-11-04T11:01:39.551Z,12.20
2023-11-04T11:04:07.393Z,12.90
2023-11-04T11:06:34.500Z,12.20
2023-11-04T11:09:04.759Z,12.40
2023-11-04T11:11:43.362Z,13.00
2023-11-04T11:14:10.454Z,13.00
2023-11-04T11:16:37.508Z,12.20
2023-11-04T11:19:11.335Z,13.40
2023-11-04T11:21:51.364Z,13.50
2023-11-04T11:24:22.100Z,13.30
2023-11-04T11:26:50.102Z,13.20
2023-11-04T11:29:24.127Z,11.60
2023-11-04T11:31:54.995Z,14.00
2023-11-04T11:34:22.058Z,13.20
2023-11-04T11:36:50.457Z,13.20
2023-11-04T11:39:17.483Z,13.50
2023-11-04T11:41:44.807Z,13.30
2023-11-04T11:44:15.870Z,14.70
2023-11-04T11:46:44.358Z,13.20
2023-11-04T11:49:14.391Z,12.90
2023-11-04T11:51:41.896Z,12.60
2023-11-04T11:54:11.483Z,13.00
2023-11-04T11:56:40.764Z,12.40
2023-11-04T11:59:08.242Z,12.70
2023-11-04T12:01:35.322Z,13.10
2023-11-04T12:04:07.554Z,13.20
2023-11-04T12:06:34.837Z,12.60
2023-11-04T12:09:02.658Z,13.50
2023-11-04T12:11:32.270Z,14.00
2023-11-04T12:14:02.189Z,13.20
2023-11-04T12:16:30.792Z,14.90
2023-11-04T12:18:57.986Z,13.60
2023-11-04T12:21:25.156Z,14.30
2023-11-04T12:23:52.037Z,13.40
2023-11-04T12:26:18.978Z,14.10
2023-11-04T12:28:46.013Z,14.30
2023-11-04T12:31:16.058Z,13.50
2023-11-04T12:33:46.715Z,14.80
2023-11-04T12:36:14.201Z,14.30
2023-11-04T12:38:44.265Z,14.40
2023-11-04T12:43:40.625Z,13.70
2023-11-04T12:46:09.862Z,14.50
2023-11-04T12:48:39.729Z,15.10
2023-11-04T12:51:07.405Z,14.20
2023-11-04T12:53:35.530Z,14.20
2023-11-04T12:56:02.647Z,14.10
2023-11-04T12:58:32.892Z,14.40
2023-11-04T13:01:01.011Z,13.90
2023-11-04T13:03:28.529Z,13.60
2023-11-04T13:05:55.747Z,14.80
2023-11-04T13:08:22.866Z,13.10
2023-11-04T13:10:50.113Z,14.30
2023-11-04T13:13:17.268Z,14.00
2023-11-04T13:15:44.232Z,13.90
2023-11-04T13:18:11.649Z,13.10
2023-11-04T13:20:38.637Z,14.80
2023-11-04T13:23:06.515Z,15.90
2023-11-04T13:25:34.472Z,15.40
2023-11-04T13:28:01.481Z,15.20
2023-11-04T13:30:28.545Z,15.50
2023-11-04T13:32:55.436Z,14.90
2023-11-04T13:35:22.838Z,14.80
2023-11-04T13:37:49.888Z,14.50
2023-11-04T13:40:17.101Z,13.60
2023-11-04T13:42:44.174Z,14.10
2023-11-04T13:45:12.232Z,15.00
2023-11-04T13:47:39.214Z,14.00
2023-11-04T13:50:07.812Z,15.00
2023-11-04T13:52:35.229Z,14.00
2023-11-04T13:55:02.459Z,13.60
2023-11-04T13:57:29.837Z,13.40
2023-11-04T13:59:56.920Z,14.30
2023-11-04T14:02:28.059Z,14.70
2023-11-04T14:04:56.736Z,12.60
2023-11-04T14:07:24.030Z,14.00
2023-11-04T14:09:51.174Z,13.90
2023-11-04T14:12:19.246Z,13.70
2023-11-04T14:14:46.867Z,13.30
2023-11-04T14:17:13.874Z,13.10
2023-11-04T14:19:40.960Z,13.30
2023-11-04T14:22:08.184Z,13.50
2023-11-04T14:24:35.529Z,13.30
2023-11-04T14:27:02.505Z,13.80
2023-11-04T14:29:29.701Z,14.30
2023-11-04T14:31:56.676Z,13.20
2023-11-04T14:34:23.760Z,13.20
2023-11-04T14:36:50.809Z,13.50
2023-11-04T14:39:20.143Z,12.40
2023-11-04T14:41:47.132Z,13.20
2023-11-04T14:44:14.176Z,12.60
2023-11-04T14:46:41.225Z,12.00
2023-11-04T14:49:08.354Z,12.20
2023-11-04T14:51:35.333Z,12.40
2023-11-04T14:54:02.517Z,12.90
2023-11-04T14:56:29.784Z,12.20
2023-11-04T14:58:56.732Z,12.20
2023-11-04T15:01:23.717Z,12.10
2023-11-04T15:03:50.698Z,12.70
2023-11-04T15:06:17.656Z,13.30
2023-11-04T15:08:45.239Z,11.90
2023-11-04T15:11:12.281Z,12.00
2023-11-04T15:13:39.283Z,11.70
2023-11-04T15:16:07.186Z,12.90
2023-11-04T15:18:34.288Z,12.00
2023-11-04T15:21:01.559Z,12.40
2023-11-04T15:23:29.264Z,12.50
2023-11-04T15:25:56.224Z,11.70
2023-11-04T15:28:24.578Z,11.10
2023-11-04T15:30:51.612Z,11.30
2023-11-04T15:33:18.682Z,11.20
2023-11-04T15:35:45.707Z,10.70
2023-11-04T15:38:12.669Z,10.70
2023-11-04T15:40:40.212Z,11.10
2023-11-04T15:43:07.711Z,11.40
2023-11-04T15:45:35.647Z,10.50
2023-11-04T15:48:02.805Z,11.60
2023-11-04T15:50:31.120Z,10.60
2023-11-04T15:52:58.090Z,10.40
2023-11-04T15:55:25.095Z,10.60
2023-11-04T15:57:52.373Z,9.80
2023-11-04T16:00:19.717Z,10.80
2023-11-04T16:02:48.380Z,10.10
2023-11-04T16:05:15.641Z,10.40
2023-11-04T16:07:43.287Z,11.00
2023-11-04T16:10:12.581Z,9.60
2023-11-04T16:12:40.463Z,10.30
2023-11-04T16:15:09.142Z,10.30
2023-11-04T16:17:36.140Z,10.10
2023-11-04T16:20:04.117Z,9.80
2023-11-04T16:22:32.233Z,10.50
2023-11-04T16:24:59.565Z,10.70
2023-11-04T16:27:26.499Z,9.90
2023-11-04T16:29:53.795Z,9.70
2023-11-04T16:32:22.424Z,10.00
2023-11-04T16:34:51.952Z,9.70
2023-11-04T16:37:19.250Z,9.70
2023-11-04T16:39:46.286Z,9.70
2023-11-04T16:42:13.220Z,8.90
2023-11-04T16:44:40.194Z,10.00
2023-11-04T16:47:07.306Z,10.10
2023-11-04T16:49:37.035Z,9.70
2023-11-04T16:52:05.343Z,9.30
2023-11-04T16:54:32.556Z,9.30
2023-11-04T16:56:59.682Z,9.80
2023-11-04T16:59:26.635Z,9.10
2023-11-04T17:01:53.778Z,9.10
2023-11-04T17:04:21.108Z,9.60
2023-11-04T17:06:48.675Z,9.00
2023-11-04T17:09:16.128Z,8.80
2023-11-04T17:11:43.102Z,9.10
2023-11-04T17:14:10.048Z,8.90
2023-11-04T17:16:37.023Z,8.80
2023-11-04T17:19:04.263Z,8.80
2023-11-04T17:21:31.738Z,8.40
2023-11-04T17:23:58.677Z,8.50
2023-11-04T17:26:25.711Z,8.90
2023-11-04T17:28:52.818Z,8.70
2023-11-04T17:31:20.300Z,8.30
2023-11-04T17:33:47.411Z,8.60
2023-11-04T17:36:15.843Z,9.10
2023-11-04T17:38:42.856Z,8.90
2023-11-04T17:41:09.846Z,7.70
2023-11-04T17:43:36.908Z,8.40
2023-11-04T17:46:04.313Z,8.30
2023-11-04T17:48:31.759Z,7.70
2023-11-04T17:50:59.006Z,7.90
2023-11-04T17:53:26.264Z,8.50
2023-11-04T17:55:53.378Z,8.30
2023-11-04T17:58:20.466Z,8.20
2023-11-04T18:00:47.604Z,8.60
2023-11-04T18:03:14.626Z,8.40
2023-11-04T18:05:41.649Z,8.30
2023-11-04T18:08:11.668Z,7.50
2023-11-04T18:10:39.290Z,8.80
2023-11-04T18:13:06.371Z,7.60
2023-11-04T18:15:33.863Z,8.20
2023-11-04T18:18:01.125Z,8.10
2023-11-04T18:20:28.230Z,7.80
2023-11-04T18:22:55.266Z,7.50
2023-11-04T18:25:22.375Z,8.30
2023-11-04T18:27:58.730Z,7.90
2023-11-04T18:30:29.244Z,7.80
2023-11-04T18:32:57.330Z,8.10
2023-11-04T18:35:24.346Z,7.30
2023-11-04T18:37:51.405Z,7.50
2023-11-04T18:42:56.392Z,8.10
2023-11-04T18:45:23.847Z,8.00
2023-11-04T18:47:51.468Z,7.30
2023-11-04T18:50:18.915Z,7.20
2023-11-04T18:52:46.148Z,7.30
2023-11-04T18:55:14.008Z,7.60
2023-11-04T18:57:41.356Z,7.10
2023-11-04T19:00:08.958Z,6.60
2023-11-04T19:02:36.644Z,7.50
2023-11-04T19:05:05.657Z,7.70
2023-11-04T19:07:32.918Z,7.00
2023-11-04T19:10:01.817Z,7.40
2023-11-04T19:12:29.098Z,7.40
2023-11-04T19:14:56.301Z,7.50
2023-11-04T19:17:23.713Z,7.40
2023-11-04T19:19:51.216Z,7.60
2023-11-04T19:22:18.275Z,6.40
2023-11-04T19:24:45.170Z,7.10
2023-11-04T19:27:12.214Z,7.30
2023-11-04T19:29:39.791Z,6.90
2023-11-04T19:32:06.960Z,6.90
2023-11-04T19:34:33.976Z,7.00
2023-11-04T19:37:00.894Z,6.50
2023-11-04T19:39:27.822Z,7.20
2023-11-04T19:41:54.856Z,7.40
2023-11-04T19:44:21.893Z,6.80
2023-11-04T19:46:48.758Z,7.00
2023-11-04T19:49:16.017Z,6.60
2023-11-04T19:51:43.255Z,7.00
2023-11-04T19:54:10.153Z,7.00
2023-11-04T19:56:37.968Z,6.80
2023-11-04T19:59:05.046Z,7.00
2023-11-04T20:01:32.283Z,6.90
2023-11-04T20:04:01.414Z,6.90
2023-11-04T20:06:28.435Z,7.30
2023-11-04T20:08:55.429Z,6.80
2023-11-04T20:11:22.979Z,7.40
2023-11-04T20:13:50.817Z,7.40
2023-11-04T20:16:18.177Z,7.50
2023-11-04T20:18:45.401Z,7.40
2023-11-04T20:21:12.448Z,7.00
2023-11-04T20:23:39.655Z,7.50
2023-11-04T20:26:07.039Z,7.40
2023-11-04T20:28:33.981Z,6.80
2023-11-04T20:31:01.115Z,7.70
2023-11-04T20:33:28.728Z,7.20
2023-11-04T20:35:56.275Z,7.70
2023-11-04T20:38:23.283Z,7.70
2023-11-04T20:40:50.387Z,7.70
2023-11-04T20:43:17.275Z,7.80
2023-11-04T20:45:44.191Z,8.20
2023-11-04T20:48:11.202Z,8.40
2023-11-04T20:50:39.260Z,7.50
2023-11-04T20:53:06.247Z,8.30
2023-11-04T20:55:33.204Z,7.70
2023-11-04T20:58:00.199Z,7.90
2023-11-04T21:00:27.470Z,7.90
2023-11-04T21:02:54.768Z,7.40
2023-11-04T21:05:24.048Z,7.70
2023-11-04T21:07:51.363Z,7.40
2023-11-04T21:10:18.629Z,7.40
2023-11-04T21:12:45.977Z,6.80
2023-11-04T21:15:13.989Z,6.80
2023-11-04T21:17:41.099Z,6.60
2023-11-04T21:20:09.549Z,7.40
2023-11-04T21:22:40.249Z,7.30
2023-11-04T21:25:10.302Z,7.40
2023-11-04T21:27:40.458Z,6.80
2023-11-04T21:30:08.334Z,6.90
2023-11-04T21:32:35.626Z,7.90
2023-11-04T21:35:02.964Z,6.80
2023-11-04T21:37:30.055Z,6.60
2023-11-04T21:39:57.015Z,6.60
2023-11-04T21:42:23.934Z,6.50
2023-11-04T21:44:50.819Z,6.90
2023-11-04T21:47:17.922Z,6.50
2023-11-04T21:49:44.838Z,6.70
2023-11-04T21:52:11.880Z,6.40
2023-11-04T21:54:38.909Z,6.00
2023-11-04T21:57:05.996Z,6.30
2023-11-04T21:59:34.025Z,6.20
2023-11-04T22:02:01.056Z,6.10
2023-11-04T22:04:28.056Z,5.30
2023-11-04T22:06:56.545Z,6.00
2023-11-04T22:09:23.672Z,5.70
2023-11-04T22:11:50.782Z,6.50
2023-11-04T22:14:17.744Z,5.70
2023-11-04T22:16:44.746Z,6.10
2023-11-04T22:19:11.921Z,5.90
2023-11-04T22:21:39.108Z,5.30
2023-11-04T22:24:06.249Z,5.80
2023-11-04T22:26:33.441Z,6.00
2023-11-04T22:29:00.398Z,5.80
2023-11-04T22:31:27.352Z,5.90
2023-11-04T22:33:54.524Z,6.10
2023-11-04T22:36:22.017Z,6.00
2023-11-04T22:38:49.060Z,6.40
2023-11-04T22:41:16.230Z,5.90
2023-11-04T22:43:43.111Z,6.30
2023-11-04T22:46:10.210Z,5.80
2023-11-04T22:48:37.290Z,6.40
2023-11-04T22:51:04.420Z,6.20
2023-11-04T22:53:31.373Z,6.20
2023-11-04T22:55:58.311Z,5.60
2023-11-04T22:58:25.206Z,5.80
2023-11-04T23:00:53.162Z,6.10
2023-11-04T23:03:20.352Z,6.10
2023-11-04T23:05:47.408Z,6.00
2023-11-04T23:08:16.494Z,6.40
2023-11-04T23:10:43.641Z,5.80
2023-11-04T23:13:10.797Z,6.00
2023-11-04T23:15:37.873Z,6.80
2023-11-04T23:18:04.910Z,6.20
2023-11-04T23:20:32.005Z,6.30
2023-11-04T23:22:59.022Z,7.00
2023-11-04T23:25:26.187Z,5.90
2023-11-04T23:27:53.197Z,6.70
2023-11-04T23:30:20.993Z,6.90
2023-11-04T23:32:48.161Z,7.00
2023-11-04T23:35:15.589Z,7.10
2023-11-04T23:37:42.666Z,7.10
2023-11-04T23:40:10.527Z,6.90
2023-11-04T23:42:37.597Z,7.20
2023-11-04T23:45:05.640Z,7.60
2023-11-04T23:47:32.979Z,7.90
2023-11-04T23:50:00.018Z,7.70
2023-11-04T23:52:26.929Z,7.50
2023-11-04T23:54:53.870Z,7.60
2023-11-04T23:57:20.765Z,8.00
2023-11-04T23:59:47.859Z,7.20
